createdAt,value
2019-05-15T00:02:10.626Z,34.70
2019-05-15T00:07:12.312Z,31.20
2019-05-15T00:12:18.752Z,33.20
2019-05-15T00:17:21.890Z,31.70
2019-05-15T00:22:25.928Z,32.83
2019-05-15T00:27:30.053Z,32.50
2019-05-15T00:32:34.196Z,32.40
2019-05-15T00:37:38.833Z,33.60
2019-05-15T00:42:43.472Z,33.13
2019-05-15T00:47:48.668Z,32.60
2019-05-15T00:52:52.914Z,31.00
2019-05-15T00:57:58.879Z,31.30
2019-05-15T01:03:02.540Z,31.80
2019-05-15T01:08:08.217Z,33.07
2019-05-15T01:13:12.528Z,32.73
2019-05-15T01:18:18.624Z,31.37
2019-05-15T01:23:22.220Z,32.67
2019-05-15T01:28:26.249Z,30.63
2019-05-15T01:33:30.280Z,31.77
2019-05-15T01:38:34.299Z,32.50
2019-05-15T01:43:38.333Z,31.80
2019-05-15T01:48:42.354Z,33.17
2019-05-15T01:53:48.053Z,32.10
2019-05-15T01:58:52.052Z,33.90
2019-05-15T02:03:56.476Z,32.97
2019-05-15T02:09:00.909Z,35.00
2019-05-15T02:14:05.348Z,33.17
2019-05-15T02:19:09.794Z,34.80
2019-05-15T02:24:13.884Z,36.27
2019-05-15T02:29:22.590Z,36.07
2019-05-15T02:34:23.575Z,36.07
2019-05-15T02:39:29.001Z,37.97
2019-05-15T02:44:33.507Z,37.07
2019-05-15T02:49:39.663Z,36.37
2019-05-15T02:54:43.255Z,34.60
2019-05-15T02:59:49.869Z,34.07
2019-05-15T03:04:59.485Z,36.33
2019-05-15T03:10:03.475Z,36.27
2019-05-15T03:15:09.703Z,34.43
2019-05-15T03:20:13.775Z,36.63
2019-05-15T03:25:19.198Z,34.60
2019-05-15T03:30:23.465Z,35.13
2019-05-15T03:35:32.119Z,35.70
2019-05-15T03:40:32.919Z,40.63
2019-05-15T03:45:40.251Z,39.30
2019-05-15T03:50:42.567Z,40.00
2019-05-15T03:55:49.048Z,38.03
2019-05-15T04:00:52.954Z,38.97
2019-05-15T04:06:00.222Z,37.60
2019-05-15T04:11:02.846Z,37.93
2019-05-15T04:16:10.002Z,37.30
2019-05-15T04:21:12.737Z,37.83
2019-05-15T04:26:19.465Z,37.90
2019-05-15T04:31:23.282Z,38.27
2019-05-15T04:36:29.667Z,37.10
2019-05-15T04:41:32.905Z,35.30
2019-05-15T04:46:39.185Z,35.77
2019-05-15T04:51:42.385Z,35.40
2019-05-15T04:56:48.731Z,34.97
2019-05-15T05:02:13.069Z,34.20
2019-05-15T05:06:58.663Z,33.73
2019-05-15T05:12:02.795Z,35.63
2019-05-15T05:17:09.071Z,32.70
2019-05-15T05:22:12.264Z,32.57
2019-05-15T05:27:18.097Z,35.07
2019-05-15T05:32:31.960Z,35.03
2019-05-15T05:37:28.055Z,35.83
2019-05-15T05:42:31.963Z,33.17
2019-05-15T05:47:38.014Z,31.37
2019-05-15T05:52:41.600Z,30.27
2019-05-15T05:57:48.647Z,29.00
2019-05-15T06:02:52.461Z,28.90
2019-05-15T06:07:58.211Z,28.60
2019-05-15T06:13:02.410Z,30.60
2019-05-15T06:18:08.322Z,29.70
2019-05-15T06:23:12.411Z,30.20
2019-05-15T06:28:19.181Z,30.33
2019-05-15T06:33:22.005Z,28.33
2019-05-15T06:38:30.626Z,28.53
2019-05-15T06:43:31.693Z,28.10
2019-05-15T06:48:37.836Z,28.63
2019-05-15T06:53:41.279Z,27.37
2019-05-15T06:58:45.713Z,26.97
2019-05-15T07:03:49.848Z,27.37
2019-05-15T07:08:53.861Z,27.40
2019-05-15T07:13:58.402Z,27.90
2019-05-15T07:19:02.444Z,27.20
2019-05-15T07:24:08.935Z,26.23
2019-05-15T07:29:12.121Z,22.60
2019-05-15T07:34:16.153Z,21.13
2019-05-15T07:39:20.275Z,19.00
2019-05-15T07:44:24.304Z,15.53
2019-05-15T07:49:28.862Z,14.93
2019-05-15T07:54:33.181Z,13.70
2019-05-15T07:59:38.620Z,12.73
2019-05-15T08:04:42.828Z,10.67
2019-05-15T08:09:48.632Z,11.00
2019-05-15T08:14:52.556Z,10.93
2019-05-15T08:19:58.255Z,11.03
2019-05-15T08:25:02.874Z,10.23
2019-05-15T08:30:09.059Z,11.40
2019-05-15T08:35:13.337Z,10.87
2019-05-15T08:40:17.931Z,10.77
2019-05-15T08:45:22.289Z,11.37
2019-05-15T08:50:28.631Z,10.67
2019-05-15T08:55:32.042Z,11.00
2019-05-15T09:00:39.575Z,10.20
2019-05-15T09:05:41.907Z,9.87
2019-05-15T09:10:46.069Z,8.50
2019-05-15T09:15:50.069Z,9.80
2019-05-15T09:20:54.129Z,8.87
2019-05-15T09:25:58.553Z,8.83
2019-05-15T09:31:02.583Z,8.60
2019-05-15T09:36:08.811Z,9.57
2019-05-15T09:41:12.344Z,10.27
2019-05-15T09:46:18.529Z,11.27
2019-05-15T09:51:22.680Z,11.27
2019-05-15T09:56:29.076Z,12.63
2019-05-15T10:01:32.582Z,11.87
2019-05-15T10:06:38.924Z,15.83
2019-05-15T10:11:42.379Z,12.23
2019-05-15T10:16:48.633Z,12.20
2019-05-15T10:21:53.494Z,12.50
2019-05-15T10:26:57.981Z,12.40
2019-05-15T10:32:02.372Z,13.43
2019-05-15T10:37:08.246Z,11.17
2019-05-15T10:42:11.927Z,12.97
2019-05-15T10:47:16.084Z,12.30
2019-05-15T10:52:20.114Z,13.07
2019-05-15T10:57:24.139Z,13.07
2019-05-15T11:02:28.986Z,13.63
2019-05-15T11:07:33.175Z,16.83
2019-05-15T11:12:37.922Z,14.70
2019-05-15T11:17:42.085Z,15.30
2019-05-15T11:22:45.986Z,15.07
2019-05-15T11:27:49.912Z,16.90
2019-05-15T11:32:54.065Z,14.80
2019-05-15T11:37:58.194Z,14.15
2019-05-15T11:43:02.896Z,14.77
2019-05-15T11:48:09.051Z,14.40
2019-05-15T11:53:14.372Z,14.43
2019-05-15T11:58:19.120Z,12.87
2019-05-15T12:03:24.932Z,13.27
2019-05-15T12:08:30.137Z,12.23
2019-05-15T12:13:34.266Z,11.33
2019-05-15T12:18:39.015Z,10.73
2019-05-15T12:23:43.198Z,10.33
2019-05-15T12:28:48.884Z,10.90
2019-05-15T12:33:52.920Z,10.40
2019-05-15T12:38:57.463Z,8.20
2019-05-15T13:04:24.969Z,4.05
2019-05-15T13:09:29.105Z,4.08
2019-05-15T13:14:33.238Z,3.35
2019-05-15T13:19:41.086Z,4.33
2019-05-15T13:24:45.291Z,5.87
2019-05-15T13:29:49.537Z,3.83
2019-05-15T13:34:53.837Z,8.00
2019-05-15T13:39:58.659Z,3.47
2019-05-15T13:45:03.040Z,3.12
2019-05-15T13:50:09.089Z,5.97
2019-05-15T13:55:24.863Z,3.03
2019-05-15T14:00:22.455Z,13.83
2019-05-15T14:05:29.469Z,17.07
2019-05-15T14:10:32.152Z,15.70
2019-05-15T14:15:38.346Z,13.32
2019-05-15T14:20:42.373Z,18.82
2019-05-15T14:25:48.211Z,4.80
2019-05-15T14:30:52.447Z,5.08
2019-05-15T14:35:57.750Z,3.25
2019-05-15T14:41:02.150Z,4.45
2019-05-15T14:46:08.085Z,4.28
2019-05-15T14:51:12.054Z,4.42
2019-05-15T14:56:18.412Z,7.78
2019-05-15T15:01:21.637Z,4.45
2019-05-15T15:06:25.971Z,4.80
2019-05-15T15:11:30.306Z,5.12
2019-05-15T15:16:34.754Z,5.45
2019-05-15T15:21:38.768Z,5.05
2019-05-15T15:26:42.788Z,5.28
2019-05-15T15:31:49.488Z,5.17
2019-05-15T15:36:52.990Z,5.95
2019-05-15T15:41:57.888Z,6.53
2019-05-15T15:47:02.291Z,6.33
2019-05-15T15:52:08.588Z,6.17
2019-05-15T15:57:12.379Z,6.83
2019-05-15T16:02:18.574Z,8.00
2019-05-15T16:07:22.168Z,9.68
2019-05-15T16:12:27.776Z,25.97
2019-05-15T16:17:32.275Z,24.60
2019-05-15T16:22:38.182Z,23.22
2019-05-15T16:27:41.959Z,15.60
2019-05-15T16:32:46.197Z,19.82
2019-05-15T16:37:50.230Z,20.05
2019-05-15T16:42:54.252Z,13.98
2019-05-15T16:47:58.783Z,13.00
2019-05-15T16:53:02.916Z,11.53
2019-05-15T16:58:09.128Z,12.80
2019-05-15T17:03:14.891Z,21.75
2019-05-15T17:08:18.275Z,16.50
2019-05-15T17:13:22.403Z,13.90
2019-05-15T17:18:26.556Z,15.78
2019-05-15T17:23:30.658Z,15.10
2019-05-15T17:28:34.782Z,18.95
2019-05-15T17:33:38.695Z,12.25
2019-05-15T17:38:42.739Z,14.68
2019-05-15T17:43:48.430Z,14.23
2019-05-15T17:48:56.082Z,16.75
2019-05-15T17:53:58.297Z,16.75
2019-05-15T17:59:02.540Z,18.82
2019-05-15T18:04:08.480Z,16.97
2019-05-15T18:09:13.872Z,18.20
2019-05-15T18:14:24.774Z,19.62
2019-05-15T18:19:30.546Z,20.45
2019-05-15T18:24:38.342Z,21.90
2019-05-15T18:29:45.169Z,22.80
2019-05-15T18:34:50.996Z,31.27
2019-05-15T18:40:05.364Z,26.15
2019-05-15T18:45:06.367Z,26.13
2019-05-15T18:50:13.711Z,28.63
2019-05-15T18:55:18.465Z,27.50
2019-05-15T19:00:22.794Z,25.87
2019-05-15T19:05:28.101Z,23.77
2019-05-15T19:10:32.383Z,26.95
2019-05-15T19:15:38.005Z,31.50
2019-05-15T19:20:45.036Z,32.40
2019-05-15T19:25:49.172Z,30.63
2019-05-15T19:30:53.143Z,30.90
2019-05-15T19:35:57.222Z,28.90
2019-05-15T19:41:03.035Z,26.57
2019-05-15T19:46:08.000Z,28.70
2019-05-15T19:51:12.266Z,27.63
2019-05-15T19:56:18.674Z,25.53
2019-05-15T20:01:21.965Z,25.37
2019-05-15T20:06:27.706Z,25.67
2019-05-15T20:11:31.658Z,26.23
2019-05-15T20:16:35.794Z,24.25
2019-05-15T20:21:39.801Z,26.53
2019-05-15T20:26:43.833Z,29.13
2019-05-15T20:31:48.377Z,28.67
2019-05-15T20:36:52.808Z,28.30
2019-05-15T20:41:58.261Z,30.97
2019-05-15T20:47:02.504Z,31.03
2019-05-15T20:52:06.528Z,30.17
2019-05-15T20:57:10.553Z,30.03
2019-05-15T21:02:14.582Z,29.50
2019-05-15T21:07:27.547Z,30.00
2019-05-15T21:12:26.436Z,29.07
2019-05-15T21:17:29.937Z,29.67
2019-05-15T21:22:33.957Z,28.17
2019-05-15T21:27:42.531Z,30.57
2019-05-15T21:32:43.753Z,31.90
2019-05-15T21:37:48.915Z,30.08
2019-05-15T21:42:53.447Z,29.87
2019-05-15T21:48:00.438Z,31.65
2019-05-15T21:53:03.137Z,31.20
2019-05-15T21:58:08.666Z,31.62
2019-05-15T22:03:12.827Z,28.20
2019-05-15T22:08:18.360Z,36.93
2019-05-15T22:13:22.620Z,33.70
2019-05-15T22:18:28.065Z,34.67
2019-05-15T22:23:32.200Z,33.30
2019-05-15T22:28:38.463Z,31.90
2019-05-15T22:33:41.797Z,34.10
2019-05-15T22:38:48.293Z,35.85
2019-05-15T22:43:51.903Z,34.25
2019-05-15T22:48:55.935Z,35.45
2019-05-15T22:54:00.051Z,33.90
2019-05-15T22:59:04.075Z,28.62
2019-05-15T23:04:08.985Z,32.10
2019-05-15T23:09:13.257Z,33.70
2019-05-15T23:14:18.083Z,31.45
2019-05-15T23:19:22.334Z,30.27
2019-05-15T23:24:28.064Z,32.83
2019-05-15T23:29:31.817Z,33.85
2019-05-15T23:34:38.433Z,37.23
2019-05-15T23:39:41.511Z,38.00
2019-05-15T23:44:45.540Z,33.18
2019-05-15T23:49:49.560Z,37.63
2019-05-15T23:54:53.609Z,37.03
2019-05-15T23:59:57.627Z,38.70
